Time;durP1;ratioP1;P1;durP2;ratioP2;P2;SDS_P1;SDS_P2;PMS_P1;PMS_P2;Temp;Humidity;BMP_temperature;BMP_pressure;BME280_temperature;BME280_humidity;BME280_pressure;Samples;Min_cycle;Max_cycle;Signal;HPM_P1;HPM_P2
2023/03/21 00:00:08;;;;;;;6.40;3.90;;;;;;;10.92;69.60;99777.03;346446;28;1050;-69
2023/03/21 00:00:20;;;;;;;5.80;4.05;;;;;;;10.87;70.19;99771.16;346048;28;1689;-68
2023/03/21 00:00:32;;;;;;;6.25;4.10;;;;;;;10.90;70.40;99776.22;346203;28;1264;-68
2023/03/21 00:00:46;;;;;;;6.22;4.00;;;;;;;10.86;70.45;99775.47;346399;28;1343;-68
2023/03/21 00:01:03;;;;;;;6.00;3.85;;;;;;;10.89;70.41;99777.16;345006;28;3055;-68
2023/03/21 00:01:15;;;;;;;5.43;3.85;;;;;;;10.95;70.14;99779.56;345730;28;1293;-68
2023/03/21 00:01:27;;;;;;;5.63;4.00;;;;;;;10.98;69.74;99776.84;345086;28;1762;-68
2023/03/21 00:01:39;;;;;;;5.35;4.00;;;;;;;11.03;69.52;99771.47;346124;28;1638;-68
2023/03/21 00:01:52;;;;;;;4.93;3.83;;;;;;;11.05;69.59;99769.72;344955;28;2230;-68
2023/03/21 00:02:05;;;;;;;5.20;3.90;;;;;;;11.07;69.77;99773.94;345592;28;1046;-68
2023/03/21 00:02:17;;;;;;;5.70;4.13;;;;;;;11.09;69.72;99772.16;346389;28;1221;-68
2023/03/21 00:02:29;;;;;;;6.32;4.07;;;;;;;11.13;69.48;99778.94;346509;28;1289;-68
2023/03/21 00:02:41;;;;;;;5.40;3.72;;;;;;;11.16;69.80;99772.78;346431;28;1187;-68
2023/03/21 00:02:53;;;;;;;4.82;3.70;;;;;;;11.17;69.72;99772.75;346428;28;1709;-68
2023/03/21 00:03:06;;;;;;;5.25;3.97;;;;;;;11.19;69.11;99777.91;345559;28;1678;-68
2023/03/21 00:03:18;;;;;;;5.18;4.00;;;;;;;11.20;69.66;99769.19;345570;28;1262;-68
2023/03/21 00:03:32;;;;;;;4.60;3.90;;;;;;;11.22;69.44;99776.94;346197;28;1024;-68
2023/03/21 00:03:45;;;;;;;4.65;3.70;;;;;;;11.21;69.23;99765.69;346337;28;1321;-68
2023/03/21 00:03:57;;;;;;;5.00;3.60;;;;;;;11.25;68.91;99769.03;346243;28;1105;-68
2023/03/21 00:04:09;;;;;;;4.78;3.67;;;;;;;11.27;68.87;99775.03;346472;28;1168;-68
2023/03/21 00:04:24;;;;;;;4.78;3.80;;;;;;;11.29;69.20;99768.00;346577;28;1285;-68
2023/03/21 00:04:36;;;;;;;5.38;4.07;;;;;;;11.31;68.88;99769.69;345779;28;1753;-69
2023/03/21 00:05:02;;;;;;;6.47;3.65;;;;;;;11.33;68.65;99770.47;344794;28;1281;-69
2023/03/21 00:05:26;;;;;;;5.78;3.53;;;;;;;11.34;69.30;99768.72;345153;28;1195;-69
2023/03/21 00:05:48;;;;;;;5.40;3.50;;;;;;;11.36;68.60;99766.91;346309;28;1022;-69
2023/03/21 00:06:10;;;;;;;4.93;3.50;;;;;;;11.35;68.72;99767.84;344710;28;1283;-70
2023/03/21 00:06:22;;;;;;;4.28;3.33;;;;;;;11.36;68.71;99769.53;344639;28;1063;-70
2023/03/21 00:06:35;;;;;;;5.50;3.55;;;;;;;11.36;68.25;99769.53;344833;28;1141;-69
2023/03/21 00:06:47;;;;;;;6.22;3.70;;;;;;;11.39;68.39;99774.63;345053;28;1569;-69
2023/03/21 00:06:59;;;;;;;5.30;3.25;;;;;;;11.39;67.97;99770.28;346231;28;1046;-69
2023/03/21 00:07:12;;;;;;;5.40;3.17;;;;;;;11.40;67.96;99768.50;346145;28;1046;-69
2023/03/21 00:07:24;;;;;;;4.63;2.90;;;;;;;11.42;68.35;99776.28;346138;28;1441;-69
2023/03/21 00:07:35;;;;;;;5.40;3.10;;;;;;;11.43;67.95;99772.75;346186;28;1275;-69
2023/03/21 00:07:47;;;;;;;4.88;3.20;;;;;;;11.42;67.89;99773.69;346393;28;1396;-69
2023/03/21 00:08:00;;;;;;;4.25;3.33;;;;;;;11.42;67.72;99768.47;346028;28;1852;-69
2023/03/21 00:08:14;;;;;;;5.68;3.28;;;;;;;11.42;67.87;99764.09;347555;28;1377;-69
2023/03/21 00:08:26;;;;;;;5.60;3.17;;;;;;;11.42;67.86;99768.47;346335;28;1134;-69
2023/03/21 00:08:38;;;;;;;5.25;3.42;;;;;;;11.42;67.79;99769.31;345653;28;1839;-70
2023/03/21 00:08:50;;;;;;;5.40;3.60;;;;;;;11.44;67.34;99767.50;345857;28;1276;-70
2023/03/21 00:09:03;;;;;;;4.45;3.28;;;;;;;11.43;67.60;99770.16;344348;28;1925;-69
2023/03/21 00:09:15;;;;;;;4.68;3.28;;;;;;;11.39;67.71;99759.88;344427;28;1458;-69
2023/03/21 00:09:28;;;;;;;6.47;3.30;;;;;;;11.40;67.59;99765.91;342101;28;1278;-69
2023/03/21 00:09:40;;;;;;;7.05;3.20;;;;;;;11.37;67.59;99766.88;341890;28;1020;-69
2023/03/21 00:09:52;;;;;;;5.82;3.15;;;;;;;11.39;67.44;99764.22;343384;28;1476;-69
2023/03/21 00:10:15;;;;;;;5.00;3.10;;;;;;;11.38;67.57;99762.50;342069;28;1095;-69
2023/03/21 00:10:40;;;;;;;5.00;3.25;;;;;;;11.37;67.57;99764.28;342846;28;1113;-70
2023/03/21 00:11:00;;;;;;;4.70;3.28;;;;;;;11.35;67.39;99766.06;343402;28;1039;-69
2023/03/21 00:11:12;;;;;;;5.40;3.30;;;;;;;11.36;67.74;99767.75;345195;28;1729;-69
2023/03/21 00:11:24;;;;;;;5.38;3.28;;;;;;;11.38;67.36;99767.72;345989;28;1059;-69
2023/03/21 00:11:36;;;;;;;5.38;3.30;;;;;;;11.33;67.97;99760.06;346075;28;1314;-69
2023/03/21 00:11:49;;;;;;;5.70;3.72;;;;;;;11.35;67.33;99763.47;345499;28;1670;-69
2023/03/21 00:12:01;;;;;;;7.82;4.40;;;;;;;11.35;67.72;99762.63;344900;28;1310;-69
2023/03/21 00:12:15;;;;;;;8.63;4.38;;;;;;;11.36;67.54;99761.72;344610;28;2226;-69
2023/03/21 00:12:31;;;;;;;8.57;4.22;;;;;;;11.35;67.84;99762.63;346344;28;1803;-69
2023/03/21 00:12:43;;;;;;;7.50;4.30;;;;;;;11.35;67.52;99762.63;346172;28;1906;-69
2023/03/21 00:12:57;;;;;;;7.00;4.25;;;;;;;11.36;67.42;99766.91;345244;28;1687;-69
2023/03/21 00:13:14;;;;;;;8.85;4.65;;;;;;;11.34;67.35;99761.75;346290;28;1207;-69
2023/03/21 00:13:31;;;;;;;13.00;5.50;;;;;;;11.36;67.24;99764.31;346183;28;1124;-69
2023/03/21 00:13:43;;;;;;;11.02;5.63;;;;;;;11.37;67.21;99763.44;344769;28;1058;-69
2023/03/21 00:13:57;;;;;;;12.57;6.25;;;;;;;11.38;67.43;99765.13;345853;28;1999;-69
2023/03/21 00:14:13;;;;;;;13.32;6.47;;;;;;;11.40;67.43;99760.72;344543;28;1735;-69
2023/03/21 00:14:29;;;;;;;11.48;5.50;;;;;;;11.43;67.28;99765.81;346120;28;1580;-69
2023/03/21 00:14:43;;;;;;;10.50;4.97;;;;;;;11.46;67.24;99765.69;346068;28;1062;-69
2023/03/21 00:15:02;;;;;;;9.30;5.15;;;;;;;11.47;67.06;99761.34;344750;28;1099;-69
2023/03/21 00:15:17;;;;;;;10.00;4.93;;;;;;;11.44;66.87;99764.91;345521;28;1177;-69
2023/03/21 00:15:37;;;;;;;7.20;4.18;;;;;;;11.41;66.74;99767.63;347277;28;1562;-69
2023/03/21 00:16:08;;;;;;;5.65;3.70;;;;;;;11.37;66.92;99766.03;346103;28;1064;-69
2023/03/21 00:16:40;;;;;;;7.75;4.10;;;;;;;11.38;66.60;99760.75;346419;28;1391;-68
2023/03/21 00:16:52;;;;;;;7.93;4.18;;;;;;;11.38;66.65;99763.34;346190;28;1462;-69
2023/03/21 00:17:05;;;;;;;6.78;3.88;;;;;;;11.36;66.41;99764.31;346424;28;1236;-68
2023/03/21 00:17:17;;;;;;;6.43;3.85;;;;;;;11.36;66.36;99764.31;346340;28;1323;-69
2023/03/21 00:17:31;;;;;;;6.95;3.70;;;;;;;11.33;66.63;99764.44;345569;28;1668;-69
2023/03/21 00:17:43;;;;;;;6.05;3.33;;;;;;;11.26;66.44;99768.97;346282;28;1094;-69
2023/03/21 00:18:02;;;;;;;6.15;3.60;;;;;;;11.20;66.08;99758.78;346307;28;1101;-69
2023/03/21 00:18:17;;;;;;;5.57;3.85;;;;;;;11.17;66.40;99761.50;345053;28;1788;-68
2023/03/21 00:18:29;;;;;;;5.28;3.72;;;;;;;11.15;66.39;99771.09;345519;28;1275;-69
2023/03/21 00:18:51;;;;;;;5.30;3.90;;;;;;;11.13;66.83;99763.34;346040;28;1023;-69
2023/03/21 00:19:05;;;;;;;8.88;3.90;;;;;;;11.11;66.52;99759.94;344680;28;1045;-69
2023/03/21 00:19:19;;;;;;;8.40;3.88;;;;;;;11.12;66.71;99761.63;344590;28;1273;-69
2023/03/21 00:19:31;;;;;;;6.28;3.95;;;;;;;11.13;66.35;99763.34;345901;28;2059;-69
2023/03/21 00:19:45;;;;;;;5.38;3.70;;;;;;;11.15;66.23;99758.94;347315;28;1840;-68
2023/03/21 00:20:03;;;;;;;5.22;3.70;;;;;;;11.17;66.15;99764.09;344863;28;1069;-69
2023/03/21 00:20:16;;;;;;;6.70;4.90;;;;;;;11.17;66.55;99762.34;344873;28;1087;-69
2023/03/21 00:20:30;;;;;;;7.30;5.15;;;;;;;11.19;66.12;99757.09;344792;28;1059;-68
2023/03/21 00:20:45;;;;;;;7.07;4.53;;;;;;;11.23;65.75;99763.88;344825;28;1111;-69
2023/03/21 00:21:01;;;;;;;6.28;4.13;;;;;;;11.22;65.87;99763.94;344866;28;1173;-69
2023/03/21 00:21:37;;;;;;;6.10;4.40;;;;;;;11.23;65.87;99757.81;344860;28;1391;-68
2023/03/21 00:22:09;;;;;;;6.03;4.93;;;;;;;11.16;65.21;99760.63;343881;28;1526;-69
2023/03/21 00:22:20;;;;;;;4.90;3.88;;;;;;;11.18;65.17;99760.56;343658;28;1078;-69
2023/03/21 00:22:35;;;;;;;4.85;3.83;;;;;;;11.13;65.56;99755.53;344776;28;1031;-69
2023/03/21 00:22:47;;;;;;;6.18;4.22;;;;;;;11.11;65.63;99762.53;344972;28;1465;-69
2023/03/21 00:23:00;;;;;;;6.63;4.90;;;;;;;11.05;65.41;99754.94;344880;28;1290;-69
2023/03/21 00:23:12;;;;;;;6.78;5.55;;;;;;;11.03;65.99;99756.75;344919;28;1294;-69
2023/03/21 00:23:26;;;;;;;8.45;5.90;;;;;;;11.02;65.76;99762.84;344833;28;1998;-69
2023/03/21 00:23:39;;;;;;;9.52;6.78;;;;;;;11.02;66.23;99760.22;344830;28;1149;-69
2023/03/21 00:23:51;;;;;;;7.97;6.03;;;;;;;10.97;66.05;99755.19;345642;28;1307;-69
2023/03/21 00:24:05;;;;;;;6.90;5.13;;;;;;;10.98;66.04;99763.84;345903;28;1315;-69
2023/03/21 00:24:17;;;;;;;6.53;5.20;;;;;;;11.01;65.97;99750.75;346365;28;1492;-69
2023/03/21 00:24:29;;;;;;;7.70;5.32;;;;;;;10.92;66.50;99761.44;345227;28;1209;-69
2023/03/21 00:24:41;;;;;;;6.88;4.97;;;;;;;10.88;66.68;99762.44;344954;28;1152;-69
2023/03/21 00:24:54;;;;;;;6.38;4.45;;;;;;;10.88;67.25;99758.06;346036;28;1356;-69
2023/03/21 00:25:08;;;;;;;5.97;4.35;;;;;;;10.86;67.09;99759.03;345984;28;1273;-69
2023/03/21 00:25:20;;;;;;;7.20;4.45;;;;;;;10.81;67.10;99759.19;346172;28;1212;-69
2023/03/21 00:25:32;;;;;;;7.15;4.18;;;;;;;10.81;67.56;99758.34;346147;28;1207;-69
2023/03/21 00:25:44;;;;;;;6.07;3.97;;;;;;;10.83;67.64;99764.34;345872;28;1259;-69
2023/03/21 00:25:57;;;;;;;5.65;3.80;;;;;;;10.85;67.48;99755.59;346048;28;1211;-69
2023/03/21 00:26:09;;;;;;;5.38;3.88;;;;;;;10.87;67.29;99760.75;346110;28;1051;-69
2023/03/21 00:26:22;;;;;;;5.43;3.92;;;;;;;10.87;67.22;99765.94;345927;28;1019;-69
2023/03/21 00:26:37;;;;;;;6.40;4.65;;;;;;;10.87;66.94;99760.75;344220;28;1638;-68
2023/03/21 00:26:49;;;;;;;7.78;5.03;;;;;;;10.89;66.47;99762.38;344767;28;1077;-68
2023/03/21 00:27:02;;;;;;;7.60;5.03;;;;;;;10.90;66.31;99758.88;344845;28;1213;-68
2023/03/21 00:27:34;;;;;;;6.93;6.22;;;;;;;10.94;66.09;99757.03;343319;28;1452;-69
2023/03/21 00:28:09;;;;;;;7.88;6.97;;;;;;;10.98;66.15;99753.44;344543;28;1780;-69
2023/03/21 00:28:24;;;;;;;8.05;7.25;;;;;;;11.01;66.09;99755.94;345962;28;1015;-69
2023/03/21 00:28:38;;;;;;;7.22;6.53;;;;;;;11.02;66.18;99755.03;345743;28;1755;-69
2023/03/21 00:28:51;;;;;;;6.63;5.78;;;;;;;11.05;66.04;99754.94;345851;28;1313;-69
2023/03/21 00:29:03;;;;;;;6.10;5.05;;;;;;;11.07;66.08;99757.50;346298;28;1059;-69
2023/03/21 00:29:15;;;;;;;5.85;4.63;;;;;;;11.07;66.35;99755.75;346163;28;1328;-69
2023/03/21 00:29:27;;;;;;;6.72;4.95;;;;;;;11.05;66.09;99749.75;346102;28;1154;-69
2023/03/21 00:29:39;;;;;;;7.95;5.25;;;;;;;11.00;66.33;99752.47;345947;28;1225;-69
2023/03/21 00:29:52;;;;;;;8.10;5.15;;;;;;;10.99;66.70;99755.16;346372;28;1194;-69
2023/03/21 00:30:05;;;;;;;6.85;5.18;;;;;;;10.84;66.77;99755.63;346066;28;1022;-69
2023/03/21 00:30:17;;;;;;;6.32;5.20;;;;;;;10.76;67.49;99748.91;346155;28;1603;-69
2023/03/21 00:30:29;;;;;;;6.15;5.50;;;;;;;10.82;67.31;99754.81;345212;28;1363;-69
2023/03/21 00:30:41;;;;;;;6.93;5.70;;;;;;;10.85;67.11;99757.34;345020;28;1138;-69
2023/03/21 00:30:58;;;;;;;6.72;5.40;;;;;;;10.86;67.28;99754.66;345566;28;1851;-69
2023/03/21 00:31:10;;;;;;;8.15;5.10;;;;;;;10.85;66.80;99753.00;346458;28;1223;-69
2023/03/21 00:31:22;;;;;;;9.07;5.50;;;;;;;10.87;66.60;99752.94;344678;28;1276;-69
2023/03/21 00:31:34;;;;;;;8.55;5.72;;;;;;;10.87;66.92;99750.34;344831;28;1564;-69
2023/03/21 00:31:46;;;;;;;8.20;5.90;;;;;;;10.87;67.20;99751.19;345043;28;1377;-69
2023/03/21 00:31:58;;;;;;;7.72;5.80;;;;;;;10.85;66.95;99757.34;346071;28;1161;-68
2023/03/21 00:32:10;;;;;;;7.13;5.60;;;;;;;10.85;67.27;99752.16;346383;28;743;-69
2023/03/21 00:32:23;;;;;;;6.82;5.70;;;;;;;10.76;67.29;99756.72;344670;28;1807;-69
2023/03/21 00:32:35;;;;;;;7.60;6.00;;;;;;;10.67;67.88;99758.78;345898;28;1510;-68
2023/03/21 00:33:00;;;;;;;9.98;6.70;;;;;;;10.59;67.85;99753.81;346445;28;1273;-68
2023/03/21 00:33:23;;;;;;;10.50;7.15;;;;;;;10.62;68.23;99756.28;346150;28;1082;-68
2023/03/21 00:33:37;;;;;;;9.90;7.28;;;;;;;10.66;68.31;99757.91;346500;28;1102;-68
2023/03/21 00:33:49;;;;;;;11.10;7.65;;;;;;;10.63;67.78;99749.38;345342;28;1523;-69
2023/03/21 00:34:01;;;;;;;12.20;8.85;;;;;;;10.68;67.95;99750.91;346410;28;1086;-69
2023/03/21 00:34:13;;;;;;;13.57;9.77;;;;;;;10.67;67.68;99751.81;346232;28;1989;-69
2023/03/21 00:34:25;;;;;;;14.75;9.63;;;;;;;10.63;67.76;99749.38;346271;28;1327;-69
2023/03/21 00:34:54;;;;;;;11.90;8.60;;;;;;;10.62;67.62;99755.44;344923;28;1356;-68
2023/03/21 00:35:26;;;;;;;12.32;8.35;;;;;;;10.56;67.89;99759.09;345121;28;1394;-68
2023/03/21 00:35:58;;;;;;;12.35;8.43;;;;;;;10.35;68.94;99751.06;345013;28;1620;-68
2023/03/21 00:36:16;;;;;;;10.52;7.65;;;;;;;10.34;68.99;99751.09;345214;28;1300;-68
2023/03/21 00:36:28;;;;;;;9.80;7.75;;;;;;;10.27;69.26;99753.00;346153;28;1082;-68
2023/03/21 00:36:40;;;;;;;9.32;7.30;;;;;;;10.22;69.59;99752.28;346426;28;1233;-68
2023/03/21 00:36:52;;;;;;;9.45;6.32;;;;;;;10.28;69.26;99746.91;346215;28;1302;-68
2023/03/21 00:37:06;;;;;;;9.75;6.13;;;;;;;10.20;69.45;99748.88;346424;28;1081;-68
2023/03/21 00:37:18;;;;;;;10.32;6.43;;;;;;;10.21;69.77;99748.00;346387;28;1240;-69
2023/03/21 00:37:30;;;;;;;9.90;6.50;;;;;;;10.24;70.07;99750.50;344728;28;1683;-68
2023/03/21 00:37:42;;;;;;;9.25;6.32;;;;;;;10.24;69.70;99749.63;346358;28;1559;-69
2023/03/21 00:37:54;;;;;;;8.63;6.03;;;;;;;10.32;69.65;99745.97;346053;28;1209;-69
2023/03/21 00:38:06;;;;;;;9.85;6.05;;;;;;;10.26;69.94;99748.72;346312;28;1705;-69
2023/03/21 00:38:22;;;;;;;10.07;6.20;;;;;;;10.27;69.42;99750.41;346266;28;1417;-68
2023/03/21 00:38:35;;;;;;;8.18;6.43;;;;;;;10.23;69.47;99751.38;346179;28;1091;-69
2023/03/21 00:38:47;;;;;;;7.72;6.03;;;;;;;10.22;69.39;99752.28;346135;28;1255;-69
2023/03/21 00:39:03;;;;;;;7.15;5.60;;;;;;;10.18;69.50;99751.53;346415;28;1042;-69
2023/03/21 00:39:15;;;;;;;8.02;6.10;;;;;;;10.08;70.24;99738.84;346288;28;1275;-68
2023/03/21 00:39:27;;;;;;;9.27;6.63;;;;;;;10.12;69.85;99748.25;346139;28;1197;-68
2023/03/21 00:39:39;;;;;;;9.23;6.47;;;;;;;10.13;70.41;99747.38;345858;28;1757;-68
2023/03/21 00:39:52;;;;;;;8.45;6.05;;;;;;;10.17;70.19;99746.38;346261;28;1756;-68
2023/03/21 00:40:08;;;;;;;9.32;6.25;;;;;;;10.24;70.13;99745.31;344790;28;1149;-69
2023/03/21 00:40:30;;;;;;;10.65;6.43;;;;;;;10.23;69.92;99743.59;344881;28;1034;-68
2023/03/21 00:40:51;;;;;;;9.18;6.63;;;;;;;10.24;70.30;99740.13;346027;28;1387;-70
2023/03/21 00:41:05;;;;;;;10.35;7.35;;;;;;;10.28;70.15;99746.91;345854;28;1270;-71
2023/03/21 00:41:30;;;;;;;8.13;6.43;;;;;;;10.35;70.03;99743.25;344876;28;1137;-71
2023/03/21 00:41:53;;;;;;;8.38;6.80;;;;;;;10.41;69.75;99741.38;343346;28;1037;-68
2023/03/21 00:42:05;;;;;;;9.45;7.13;;;;;;;10.38;69.80;99735.38;344450;28;1229;-69
2023/03/21 00:42:17;;;;;;;9.65;6.97;;;;;;;10.35;69.98;99743.25;344886;28;1035;-69
2023/03/21 00:42:29;;;;;;;9.35;6.78;;;;;;;10.34;70.04;99733.78;345018;28;2141;-69
2023/03/21 00:42:41;;;;;;;8.23;6.32;;;;;;;10.36;69.74;99738.91;344636;28;1316;-69
2023/03/21 00:42:53;;;;;;;7.40;5.97;;;;;;;10.36;69.81;99742.38;344792;28;1172;-69
2023/03/21 00:43:05;;;;;;;7.82;6.07;;;;;;;10.31;70.04;99741.66;344602;28;1062;-69
2023/03/21 00:43:22;;;;;;;8.85;6.40;;;;;;;10.33;69.74;99737.25;344906;28;1145;-68
2023/03/21 00:43:34;;;;;;;9.55;6.97;;;;;;;10.37;70.06;99736.25;343398;28;1031;-69
2023/03/21 00:43:46;;;;;;;9.38;7.13;;;;;;;10.44;69.43;99742.13;343059;28;1293;-69
2023/03/21 00:43:58;;;;;;;10.00;6.80;;;;;;;10.45;69.66;99738.63;344523;28;1015;-68
2023/03/21 00:44:14;;;;;;;9.30;6.28;;;;;;;10.52;69.52;99736.69;345530;28;1137;-68
2023/03/21 00:44:26;;;;;;;7.80;5.22;;;;;;;10.57;69.04;99734.81;345340;28;1762;-69
2023/03/21 00:44:39;;;;;;;7.53;5.00;;;;;;;10.60;68.83;99732.09;345143;28;1024;-69
2023/03/21 00:44:51;;;;;;;7.60;5.07;;;;;;;10.65;68.70;99731.97;344737;28;1564;-69
2023/03/21 00:45:05;;;;;;;6.80;5.30;;;;;;;10.67;68.95;99733.63;344841;28;1063;-69
2023/03/21 00:45:18;;;;;;;6.30;5.50;;;;;;;10.71;68.57;99731.78;344999;28;1084;-69
2023/03/21 00:45:30;;;;;;;7.40;5.47;;;;;;;10.74;68.73;99737.72;344821;28;1047;-69
2023/03/21 00:45:45;;;;;;;7.45;5.10;;;;;;;10.78;68.47;99736.75;344747;28;1362;-69
2023/03/21 00:45:58;;;;;;;6.65;5.05;;;;;;;10.82;68.10;99731.44;345388;28;1275;-69
2023/03/21 00:46:10;;;;;;;7.85;5.43;;;;;;;10.84;67.84;99719.22;346490;28;919;-69
2023/03/21 00:46:22;;;;;;;8.52;5.75;;;;;;;10.85;67.95;99732.19;346190;28;1050;-70
2023/03/21 00:46:41;;;;;;;8.15;5.75;;;;;;;10.86;68.03;99725.22;346033;28;1296;-70
2023/03/21 00:47:12;;;;;;;8.43;5.70;;;;;;;10.88;68.15;99719.06;344720;28;1072;-71
2023/03/21 00:47:24;;;;;;;8.63;5.80;;;;;;;10.90;68.07;99726.81;344596;28;1501;-70
2023/03/21 00:47:36;;;;;;;8.13;5.45;;;;;;;10.92;67.59;99725.03;345188;28;1267;-69
2023/03/21 00:47:49;;;;;;;8.23;5.53;;;;;;;10.93;68.01;99724.13;346006;28;1300;-69
2023/03/21 00:48:01;;;;;;;8.52;5.45;;;;;;;10.93;67.65;99724.13;345973;28;1066;-68
2023/03/21 00:48:13;;;;;;;7.75;5.40;;;;;;;10.94;68.16;99725.81;345726;28;1991;-69
2023/03/21 00:48:26;;;;;;;7.45;5.28;;;;;;;10.94;67.61;99728.41;346369;28;1862;-69
2023/03/21 00:48:38;;;;;;;9.05;5.53;;;;;;;10.95;67.60;99728.38;344970;28;1039;-69
2023/03/21 00:48:50;;;;;;;9.27;5.60;;;;;;;10.95;68.16;99728.38;345342;28;1291;-69
2023/03/21 00:49:02;;;;;;;9.13;5.45;;;;;;;10.96;68.13;99729.22;346238;28;1022;-69
2023/03/21 00:49:14;;;;;;;8.57;5.10;;;;;;;10.97;68.13;99730.94;345986;28;1471;-68
2023/03/21 00:49:26;;;;;;;8.65;5.65;;;;;;;10.99;68.35;99729.13;346036;28;1139;-68
2023/03/21 00:49:38;;;;;;;8.00;5.60;;;;;;;10.99;68.12;99723.94;346135;28;1091;-68
2023/03/21 00:49:50;;;;;;;7.07;5.38;;;;;;;11.01;68.08;99727.34;346106;28;1336;-69
2023/03/21 00:50:03;;;;;;;7.03;5.10;;;;;;;11.01;68.12;99727.34;346549;28;736;-69
2023/03/21 00:50:16;;;;;;;8.00;5.20;;;;;;;11.02;67.72;99729.03;345703;28;1596;-69
2023/03/21 00:50:29;;;;;;;8.43;5.35;;;;;;;11.01;67.80;99722.13;346625;28;1754;-69
2023/03/21 00:50:44;;;;;;;7.40;5.00;;;;;;;11.02;67.81;99726.41;347938;28;1038;-69
2023/03/21 00:50:58;;;;;;;5.85;4.72;;;;;;;11.03;67.83;99725.53;346965;28;1382;-69
2023/03/21 00:51:20;;;;;;;6.18;4.65;;;;;;;11.05;67.73;99728.94;347837;28;1042;-69
2023/03/21 00:51:32;;;;;;;6.22;4.90;;;;;;;11.05;67.84;99723.72;347767;28;1014;-69
2023/03/21 00:51:44;;;;;;;6.03;4.60;;;;;;;11.07;67.51;99727.13;347686;28;1314;-69
2023/03/21 00:51:56;;;;;;;6.72;4.57;;;;;;;11.07;67.28;99724.53;345564;28;1073;-69
2023/03/21 00:52:19;;;;;;;6.80;4.53;;;;;;;11.09;67.71;99725.31;345708;28;1782;-68
2023/03/21 00:52:51;;;;;;;7.78;4.70;;;;;;;11.10;67.65;99727.00;345635;28;1259;-69
2023/03/21 00:53:03;;;;;;;7.03;4.35;;;;;;;11.09;67.50;99725.31;346026;28;1186;-69
2023/03/21 00:53:15;;;;;;;6.78;4.53;;;;;;;11.08;67.57;99718.41;346300;28;1094;-68
2023/03/21 00:53:27;;;;;;;6.82;4.70;;;;;;;11.10;67.49;99721.81;346174;28;1176;-68
2023/03/21 00:53:39;;;;;;;6.97;4.93;;;;;;;11.10;67.47;99720.97;345772;28;1772;-69
2023/03/21 00:53:53;;;;;;;8.52;5.13;;;;;;;11.11;67.22;99727.88;346291;28;1367;-69
2023/03/21 00:54:06;;;;;;;9.40;5.32;;;;;;;11.11;67.25;99723.53;345872;28;1183;-69
2023/03/21 00:54:18;;;;;;;8.75;5.10;;;;;;;11.12;67.47;99725.19;344646;28;1187;-69
2023/03/21 00:54:30;;;;;;;6.53;4.60;;;;;;;11.13;67.03;99726.91;345355;28;1637;-69
2023/03/21 00:54:42;;;;;;;5.97;4.60;;;;;;;11.15;67.27;99719.06;346055;28;1051;-69
2023/03/21 00:54:54;;;;;;;5.32;4.55;;;;;;;11.15;67.28;99721.66;346153;28;1019;-69
2023/03/21 00:55:10;;;;;;;6.45;4.68;;;;;;;11.16;66.97;99726.81;345299;28;2150;-69
2023/03/21 00:55:22;;;;;;;6.75;4.68;;;;;;;11.17;67.00;99725.91;345746;28;1729;-69
2023/03/21 00:55:34;;;;;;;6.50;4.68;;;;;;;11.17;67.32;99722.47;344735;28;1023;-69
2023/03/21 00:55:47;;;;;;;6.07;4.57;;;;;;;11.18;67.06;99725.00;344979;28;1914;-69
2023/03/21 00:55:59;;;;;;;5.65;4.25;;;;;;;11.17;67.44;99718.09;346087;28;1011;-69
2023/03/21 00:56:11;;;;;;;5.82;4.15;;;;;;;11.16;67.34;99726.81;345927;28;1107;-69
2023/03/21 00:56:23;;;;;;;7.15;4.32;;;;;;;11.17;67.14;99723.31;346078;28;1035;-69
2023/03/21 00:56:35;;;;;;;6.93;4.38;;;;;;;11.17;67.21;99720.72;346196;28;1212;-69
2023/03/21 00:56:47;;;;;;;6.22;4.20;;;;;;;11.18;66.82;99724.16;346120;28;1362;-69
2023/03/21 00:57:00;;;;;;;5.40;4.20;;;;;;;11.18;67.52;99724.16;346423;28;1058;-69
2023/03/21 00:57:12;;;;;;;5.75;4.57;;;;;;;11.15;67.26;99719.06;346254;28;1159;-69
2023/03/21 00:57:24;;;;;;;6.38;4.63;;;;;;;11.16;67.42;99721.59;345583;28;1675;-69
2023/03/21 00:57:50;;;;;;;5.85;4.00;;;;;;;11.17;67.43;99723.31;346195;28;1311;-69
2023/03/21 00:58:12;;;;;;;5.03;3.78;;;;;;;11.19;67.32;99724.09;345719;28;1768;-69
2023/03/21 00:58:25;;;;;;;5.55;3.85;;;;;;;11.19;67.67;99726.72;346421;28;1034;-69
2023/03/21 00:58:37;;;;;;;7.00;4.10;;;;;;;11.20;67.19;99727.56;346371;28;1022;-69
2023/03/21 00:58:50;;;;;;;7.80;4.30;;;;;;;11.21;67.31;99718.88;345953;28;1364;-69
2023/03/21 00:59:02;;;;;;;5.70;4.00;;;;;;;11.20;67.12;99723.19;343323;28;1942;-69
2023/03/21 00:59:15;;;;;;;4.50;3.70;;;;;;;11.22;67.63;99724.91;344200;28;1047;-69
2023/03/21 00:59:28;;;;;;;4.68;3.70;;;;;;;11.22;67.20;99719.69;344214;28;1812;-69
2023/03/21 00:59:40;;;;;;;5.13;3.50;;;;;;;11.22;67.11;99717.94;344706;28;1086;-69
2023/03/21 00:59:52;;;;;;;5.00;3.30;;;;;;;11.23;67.53;99726.59;344755;28;1618;-69
2023/03/21 01:00:06;;;;;;;5.20;3.22;;;;;;;11.24;67.21;99726.53;344846;28;1106;-69
2023/03/21 01:00:19;;;;;;;5.10;3.30;;;;;;;11.24;66.99;99723.09;344658;28;1138;-69
2023/03/21 01:00:32;;;;;;;4.45;3.22;;;;;;;11.25;67.16;99724.78;344487;28;2347;-69
2023/03/21 01:00:47;;;;;;;5.90;3.40;;;;;;;11.25;67.07;99724.78;345749;28;1346;-69
2023/03/21 01:01:01;;;;;;;6.30;3.30;;;;;;;11.26;67.12;99726.50;345125;28;1838;-69
2023/03/21 01:01:13;;;;;;;4.45;3.13;;;;;;;11.26;66.67;99731.69;346621;28;1269;-69
2023/03/21 01:01:30;;;;;;;4.25;3.30;;;;;;;11.26;66.69;99726.50;346138;28;1232;-69
2023/03/21 01:01:45;;;;;;;5.35;3.50;;;;;;;11.26;66.71;99724.75;346225;28;1007;-69
2023/03/21 01:01:59;;;;;;;4.75;3.30;;;;;;;11.27;66.76;99728.19;346268;28;1293;-69
2023/03/21 01:02:13;;;;;;;3.55;3.00;;;;;;;11.26;67.15;99722.13;345946;28;1276;-69
2023/03/21 01:02:26;;;;;;;5.00;3.17;;;;;;;11.28;67.02;99724.69;346525;28;825;-69
2023/03/21 01:02:41;;;;;;;5.47;3.33;;;;;;;11.28;66.58;99728.13;345371;28;1743;-69
2023/03/21 01:02:57;;;;;;;5.45;3.25;;;;;;;11.28;66.58;99722.09;346323;28;1038;-69
2023/03/21 01:03:19;;;;;;;4.65;3.00;;;;;;;11.28;66.86;99722.94;346745;28;1754;-69
2023/03/21 01:03:41;;;;;;;5.03;3.20;;;;;;;11.29;66.44;99727.25;346002;28;1231;-69
2023/03/21 01:04:02;;;;;;;5.85;3.38;;;;;;;11.30;66.43;99725.50;345919;28;1548;-69
2023/03/21 01:04:15;;;;;;;5.78;3.30;;;;;;;11.31;66.49;99729.81;346241;28;1197;-69
2023/03/21 01:04:27;;;;;;;4.43;3.10;;;;;;;11.32;66.70;99726.28;345788;28;1792;-69
2023/03/21 01:04:39;;;;;;;4.40;3.05;;;;;;;11.31;66.53;99725.44;344872;28;1104;-69
2023/03/21 01:04:53;;;;;;;5.13;3.20;;;;;;;11.32;66.68;99726.28;346119;28;1323;-69
2023/03/21 01:05:05;;;;;;;6.13;3.22;;;;;;;11.32;66.35;99721.09;346440;28;1066;-69
2023/03/21 01:06:00;;;;;;;6.53;3.50;;;;;;;11.32;66.80;99721.09;346344;28;1026;-69
2023/03/21 01:06:05;;;;;;;4.43;3.20;;;;;;;11.30;66.74;99728.09;346452;28;1330;-69
2023/03/21 01:06:18;;;;;;;6.18;3.53;;;;;;;11.26;66.69;99716.94;346172;28;1046;-68
2023/03/21 01:06:31;;;;;;;5.50;3.70;;;;;;;11.26;66.70;99724.75;345905;28;1884;-68
2023/03/21 01:06:44;;;;;;;4.75;3.65;;;;;;;11.26;66.62;99726.50;346396;28;1600;-69
2023/03/21 01:06:56;;;;;;;4.45;3.47;;;;;;;11.26;66.44;99726.50;345117;28;1121;-69
2023/03/21 01:07:08;;;;;;;4.85;3.50;;;;;;;11.27;67.03;99722.97;345700;28;1238;-69
2023/03/21 01:07:20;;;;;;;4.55;3.28;;;;;;;11.27;66.67;99717.78;345445;28;1681;-69
2023/03/21 01:07:32;;;;;;;4.70;3.10;;;;;;;11.28;66.71;99725.53;346081;28;1119;-69
2023/03/21 01:07:44;;;;;;;4.50;3.17;;;;;;;11.29;66.75;99718.56;345967;28;1319;-69
2023/03/21 01:07:56;;;;;;;4.40;3.20;;;;;;;11.30;66.61;99722.88;346093;28;1026;-69
2023/03/21 01:08:13;;;;;;;4.75;3.30;;;;;;;11.31;66.84;99719.41;346576;28;740;-69
2023/03/21 01:08:40;;;;;;;5.93;3.60;;;;;;;11.26;66.87;99719.53;345212;28;1269;-69
2023/03/21 01:09:03;;;;;;;4.50;3.30;;;;;;;11.26;67.02;99721.28;346399;28;1121;-69
2023/03/21 01:09:20;;;;;;;4.93;3.33;;;;;;;11.28;67.07;99727.28;345362;28;1084;-69
2023/03/21 01:09:32;;;;;;;4.68;3.38;;;;;;;11.30;66.84;99722.88;344928;28;1593;-68
2023/03/21 01:09:44;;;;;;;3.83;3.08;;;;;;;11.30;66.76;99717.69;344564;28;1409;-68
2023/03/21 01:09:56;;;;;;;4.13;3.10;;;;;;;11.29;67.30;99721.16;346325;28;1181;-69
2023/03/21 01:10:10;;;;;;;4.43;3.30;;;;;;;11.26;67.23;99726.50;345250;28;1810;-69
2023/03/21 01:10:22;;;;;;;4.85;3.60;;;;;;;11.22;67.18;99720.53;346240;28;2008;-69
2023/03/21 01:10:37;;;;;;;6.35;3.70;;;;;;;11.22;67.28;99715.34;346356;28;1236;-68